createdAt,value
2018-01-21T00:02:26.060Z,100.00
2018-01-21T00:04:53.644Z,100.00
2018-01-21T00:07:21.197Z,100.00
2018-01-21T00:09:48.820Z,100.00
2018-01-21T00:12:16.334Z,100.00
2018-01-21T00:14:44.193Z,100.00
2018-01-21T00:17:11.733Z,100.00
2018-01-21T00:19:39.327Z,100.00
2018-01-21T00:22:06.923Z,100.00
2018-01-21T00:24:34.494Z,100.00
2018-01-21T00:27:02.290Z,100.00
2018-01-21T00:29:29.831Z,100.00
2018-01-21T00:31:57.401Z,100.00
2018-01-21T00:34:24.952Z,100.00
2018-01-21T00:36:52.930Z,100.00
2018-01-21T00:39:20.485Z,100.00
2018-01-21T00:41:48.034Z,100.00
2018-01-21T00:44:15.626Z,100.00
2018-01-21T00:46:43.169Z,100.00
2018-01-21T00:49:10.758Z,100.00
2018-01-21T00:51:38.276Z,100.00
2018-01-21T00:54:05.865Z,100.00
2018-01-21T00:56:33.418Z,100.00
2018-01-21T00:59:01.291Z,100.00
2018-01-21T01:01:28.841Z,100.00
2018-01-21T01:03:56.398Z,100.00
2018-01-21T01:06:23.938Z,100.00
2018-01-21T01:08:51.570Z,100.00
2018-01-21T01:11:19.128Z,100.00
2018-01-21T01:13:46.663Z,100.00
2018-01-21T01:16:14.232Z,100.00
2018-01-21T01:18:41.850Z,100.00
2018-01-21T01:21:09.414Z,100.00
2018-01-21T01:23:36.941Z,100.00
2018-01-21T01:26:04.676Z,100.00
2018-01-21T01:28:32.209Z,100.00
2018-01-21T01:30:59.762Z,100.00
2018-01-21T01:33:27.897Z,100.00
2018-01-21T01:35:55.483Z,100.00
2018-01-21T01:38:23.007Z,100.00
2018-01-21T01:40:50.593Z,100.00
2018-01-21T01:43:18.210Z,100.00
2018-01-21T01:45:45.756Z,100.00
2018-01-21T01:48:13.343Z,100.00
2018-01-21T01:50:41.168Z,100.00
2018-01-21T01:53:08.743Z,100.00
2018-01-21T01:55:36.276Z,100.00
2018-01-21T01:58:03.899Z,100.00
2018-01-21T02:00:31.423Z,100.00
2018-01-21T02:02:59.027Z,100.00
2018-01-21T02:05:26.609Z,100.00
2018-01-21T02:07:54.180Z,100.00
2018-01-21T02:10:21.706Z,100.00
2018-01-21T02:12:49.304Z,100.00
2018-01-21T02:15:17.185Z,100.00
2018-01-21T02:17:44.710Z,100.00
2018-01-21T02:20:12.245Z,100.00
2018-01-21T02:22:39.828Z,100.00
2018-01-21T02:25:07.640Z,100.00
2018-01-21T02:27:35.204Z,100.00
2018-01-21T02:30:02.722Z,100.00
2018-01-21T02:32:30.306Z,100.00
2018-01-21T02:34:57.870Z,100.00
2018-01-21T02:37:25.470Z,100.00
2018-01-21T02:39:53.281Z,100.00
2018-01-21T02:42:20.842Z,100.00
2018-01-21T02:44:48.636Z,100.00
2018-01-21T02:47:16.237Z,100.00
2018-01-21T02:49:43.790Z,100.00
2018-01-21T02:52:11.425Z,100.00
2018-01-21T02:54:39.021Z,100.00
2018-01-21T02:57:06.613Z,100.00
2018-01-21T02:59:34.213Z,100.00
2018-01-21T03:02:01.770Z,100.00
2018-01-21T03:04:29.371Z,100.00
2018-01-21T03:06:56.897Z,100.00
2018-01-21T03:09:24.439Z,100.00
2018-01-21T03:11:51.957Z,100.00
2018-01-21T03:14:19.515Z,100.00
2018-01-21T03:16:47.078Z,100.00
2018-01-21T03:19:14.675Z,100.00
2018-01-21T03:21:42.205Z,100.00
2018-01-21T03:24:09.803Z,100.00
2018-01-21T03:26:37.371Z,100.00
2018-01-21T03:29:04.900Z,100.00
2018-01-21T03:31:32.736Z,100.00
2018-01-21T03:34:00.290Z,100.00
2018-01-21T03:36:27.816Z,100.00
2018-01-21T03:38:55.494Z,100.00
2018-01-21T03:41:23.468Z,100.00
2018-01-21T03:43:51.043Z,100.00
2018-01-21T03:46:18.599Z,100.00
2018-01-21T03:48:46.172Z,100.00
2018-01-21T03:51:13.741Z,100.00
2018-01-21T03:53:41.388Z,100.00
2018-01-21T03:56:08.921Z,100.00
2018-01-21T03:58:36.515Z,100.00
2018-01-21T04:01:04.192Z,100.00
2018-01-21T04:03:31.723Z,100.00
2018-01-21T04:05:59.247Z,100.00
2018-01-21T04:08:26.797Z,100.00
2018-01-21T04:10:54.380Z,100.00
2018-01-21T04:13:22.186Z,100.00
2018-01-21T04:15:49.750Z,100.00
2018-01-21T04:18:17.329Z,100.00
2018-01-21T04:20:44.895Z,100.00
2018-01-21T04:23:12.487Z,100.00
2018-01-21T04:25:40.374Z,100.00
2018-01-21T04:28:07.930Z,100.00
2018-01-21T04:30:35.465Z,100.00
2018-01-21T04:33:03.090Z,100.00
2018-01-21T04:35:30.626Z,100.00
2018-01-21T04:37:58.195Z,100.00
2018-01-21T04:40:25.852Z,100.00
2018-01-21T04:42:53.405Z,100.00
2018-01-21T04:45:21.028Z,100.00
2018-01-21T04:47:48.825Z,100.00
2018-01-21T04:50:16.357Z,100.00
2018-01-21T04:52:43.935Z,100.00
2018-01-21T04:55:11.452Z,100.00
2018-01-21T04:57:38.980Z,100.00
2018-01-21T05:00:06.574Z,100.00
2018-01-21T05:02:34.153Z,100.00
2018-01-21T05:05:01.717Z,100.00
2018-01-21T05:07:29.295Z,100.00
2018-01-21T05:09:56.848Z,100.00
2018-01-21T05:12:24.439Z,100.00
2018-01-21T05:14:51.993Z,100.00
2018-01-21T05:17:19.608Z,100.00
2018-01-21T05:19:47.170Z,100.00
2018-01-21T05:22:14.948Z,100.00
2018-01-21T05:24:42.727Z,100.00
2018-01-21T05:27:10.505Z,100.00
2018-01-21T05:29:38.054Z,100.00
2018-01-21T05:32:05.624Z,100.00
2018-01-21T05:34:33.181Z,100.00
2018-01-21T05:37:00.703Z,100.00
2018-01-21T05:39:28.267Z,100.00
2018-01-21T05:41:55.792Z,100.00
2018-01-21T05:44:23.404Z,100.00
2018-01-21T05:46:51.343Z,100.00
2018-01-21T05:49:18.902Z,100.00
2018-01-21T05:51:46.444Z,100.00
2018-01-21T05:54:14.016Z,100.00
2018-01-21T05:56:41.569Z,100.00
2018-01-21T05:59:09.172Z,100.00
2018-01-21T06:01:36.777Z,100.00
2018-01-21T06:04:04.612Z,100.00
2018-01-21T06:06:32.135Z,100.00
2018-01-21T06:08:59.713Z,100.00
2018-01-21T06:11:27.270Z,100.00
2018-01-21T06:13:54.833Z,100.00
2018-01-21T06:16:22.380Z,100.00
2018-01-21T06:18:49.942Z,100.00
2018-01-21T06:21:17.583Z,100.00
2018-01-21T06:23:45.147Z,100.00
2018-01-21T06:26:12.716Z,100.00
2018-01-21T06:28:40.311Z,100.00
2018-01-21T06:31:07.873Z,100.00
2018-01-21T06:33:35.466Z,100.00
2018-01-21T06:36:03.100Z,100.00
2018-01-21T06:38:30.728Z,100.00
2018-01-21T06:40:58.353Z,100.00
2018-01-21T06:43:25.962Z,100.00
2018-01-21T06:45:53.536Z,100.00
2018-01-21T06:48:21.132Z,100.00
2018-01-21T06:50:48.696Z,100.00
2018-01-21T06:53:16.320Z,100.00
2018-01-21T06:55:44.725Z,100.00
2018-01-21T06:58:12.375Z,100.00
2018-01-21T07:00:39.911Z,100.00
2018-01-21T07:03:07.474Z,100.00
2018-01-21T07:05:35.111Z,100.00
2018-01-21T07:08:02.709Z,100.00
2018-01-21T07:10:30.300Z,100.00
2018-01-21T07:12:58.098Z,100.00
2018-01-21T07:15:25.676Z,100.00
2018-01-21T07:17:53.230Z,100.00
2018-01-21T07:20:20.789Z,100.00
2018-01-21T07:22:48.755Z,100.00
2018-01-21T07:25:16.350Z,100.00
2018-01-21T07:27:43.939Z,100.00
2018-01-21T07:30:11.677Z,100.00
2018-01-21T07:32:39.212Z,100.00
2018-01-21T07:35:06.776Z,100.00
2018-01-21T07:37:34.331Z,100.00
2018-01-21T07:40:01.894Z,100.00
2018-01-21T07:42:32.477Z,100.00
2018-01-21T07:45:00.018Z,100.00
2018-01-21T07:47:27.622Z,100.00
2018-01-21T07:49:55.135Z,100.00
2018-01-21T07:52:22.726Z,100.00
2018-01-21T07:54:50.527Z,100.00
2018-01-21T07:57:18.155Z,100.00
2018-01-21T07:59:45.706Z,100.00
2018-01-21T08:02:13.266Z,100.00
2018-01-21T08:04:41.121Z,100.00
2018-01-21T08:07:08.646Z,100.00
2018-01-21T08:09:36.168Z,100.00
2018-01-21T08:12:03.840Z,100.00
2018-01-21T08:14:31.399Z,100.00
2018-01-21T08:16:58.977Z,100.00
2018-01-21T08:19:26.535Z,100.00
2018-01-21T08:21:54.086Z,100.00
2018-01-21T08:24:22.834Z,100.00
2018-01-21T08:26:50.374Z,100.00
2018-01-21T08:29:17.916Z,100.00
2018-01-21T08:31:45.447Z,100.00
2018-01-21T08:34:18.760Z,100.00
2018-01-21T08:36:51.768Z,100.00
2018-01-21T08:39:24.960Z,100.00
2018-01-21T08:44:57.257Z,100.00
2018-01-21T08:47:24.831Z,100.00
2018-01-21T08:49:52.391Z,100.00
2018-01-21T08:52:19.895Z,100.00
2018-01-21T08:54:47.438Z,100.00
2018-01-21T08:57:15.431Z,100.00
2018-01-21T08:59:43.036Z,100.00
2018-01-21T09:02:10.542Z,100.00
2018-01-21T09:04:38.127Z,100.00
2018-01-21T09:07:05.693Z,100.00
2018-01-21T09:09:33.229Z,100.00
2018-01-21T09:12:01.096Z,100.00
2018-01-21T09:14:28.629Z,100.00
2018-01-21T09:16:56.182Z,100.00
2018-01-21T09:19:23.774Z,100.00
2018-01-21T09:21:51.299Z,100.00
2018-01-21T09:24:18.923Z,100.00
2018-01-21T09:26:46.576Z,100.00
2018-01-21T09:29:14.125Z,100.00
2018-01-21T09:31:41.657Z,100.00
2018-01-21T09:34:09.266Z,100.00
2018-01-21T09:36:36.786Z,100.00
2018-01-21T09:39:04.370Z,100.00
2018-01-21T09:41:31.978Z,100.00
2018-01-21T09:43:59.539Z,100.00
2018-01-21T09:46:27.102Z,100.00
2018-01-21T09:48:54.796Z,100.00
2018-01-21T09:51:22.328Z,100.00
2018-01-21T09:53:50.025Z,100.00
2018-01-21T09:56:17.587Z,100.00
2018-01-21T09:58:45.100Z,100.00
2018-01-21T10:01:12.659Z,100.00
2018-01-21T10:03:40.312Z,100.00
2018-01-21T10:06:07.941Z,100.00
2018-01-21T10:08:35.467Z,100.00
2018-01-21T10:11:03.112Z,100.00
2018-01-21T10:13:30.675Z,100.00
2018-01-21T10:15:58.269Z,100.00
2018-01-21T10:18:26.231Z,100.00
2018-01-21T10:20:53.738Z,100.00
2018-01-21T10:23:21.281Z,100.00
2018-01-21T10:25:48.935Z,100.00
2018-01-21T10:28:16.459Z,100.00
2018-01-21T10:30:44.000Z,100.00
2018-01-21T10:33:11.574Z,100.00
2018-01-21T10:35:39.128Z,100.00
2018-01-21T10:38:06.673Z,100.00
2018-01-21T10:40:34.227Z,100.00
2018-01-21T10:43:01.782Z,100.00
2018-01-21T10:45:29.378Z,100.00
2018-01-21T10:47:56.956Z,99.73
2018-01-21T10:50:24.455Z,100.00
2018-01-21T10:52:52.033Z,100.00
2018-01-21T10:55:19.566Z,99.96
2018-01-21T10:57:47.170Z,99.27
2018-01-21T11:00:14.777Z,99.54
2018-01-21T11:02:42.298Z,99.37
2018-01-21T11:05:09.840Z,97.51
2018-01-21T11:07:37.863Z,96.85
2018-01-21T11:10:05.447Z,97.26
2018-01-21T11:12:32.998Z,97.56
2018-01-21T11:15:00.647Z,97.17
2018-01-21T11:17:28.233Z,96.81
2018-01-21T11:19:55.833Z,96.78
2018-01-21T11:22:23.415Z,96.58
2018-01-21T11:24:50.910Z,95.78
2018-01-21T11:27:18.439Z,95.26
2018-01-21T11:29:46.204Z,95.87
2018-01-21T11:32:14.178Z,96.08
2018-01-21T11:34:41.678Z,95.77
2018-01-21T11:37:09.452Z,95.65
2018-01-21T11:39:37.029Z,95.42
2018-01-21T11:42:04.620Z,95.83
2018-01-21T11:44:32.170Z,95.76
2018-01-21T11:46:59.687Z,94.34
2018-01-21T11:49:29.811Z,95.67
2018-01-21T11:51:57.323Z,96.91
2018-01-21T11:54:24.835Z,95.74
2018-01-21T11:56:52.426Z,97.29
2018-01-21T11:59:20.169Z,96.85
2018-01-21T12:01:47.722Z,98.10
2018-01-21T12:04:15.631Z,97.78
2018-01-21T12:06:43.228Z,96.25
2018-01-21T12:09:10.747Z,94.74
2018-01-21T12:11:38.276Z,95.47
2018-01-21T12:14:05.816Z,96.03
2018-01-21T12:16:33.382Z,93.89
2018-01-21T12:19:00.938Z,92.49
2018-01-21T12:21:28.884Z,93.51
2018-01-21T12:23:56.485Z,94.22
2018-01-21T12:26:24.000Z,93.48
2018-01-21T12:28:51.602Z,93.00
2018-01-21T12:31:19.111Z,93.28
2018-01-21T12:33:46.884Z,92.98
2018-01-21T12:36:14.463Z,92.65
2018-01-21T12:38:42.261Z,92.33
2018-01-21T12:41:09.800Z,92.74
2018-01-21T12:43:37.349Z,92.35
2018-01-21T12:46:04.937Z,91.36
2018-01-21T12:48:32.439Z,91.45
2018-01-21T12:50:59.977Z,90.43
2018-01-21T12:53:27.515Z,91.11
2018-01-21T12:55:55.215Z,90.75
2018-01-21T12:58:23.051Z,89.18
2018-01-21T13:00:50.607Z,88.68
2018-01-21T13:03:18.157Z,87.37
2018-01-21T13:05:45.975Z,85.69
2018-01-21T13:08:13.537Z,86.72
2018-01-21T13:10:41.095Z,87.46
2018-01-21T13:13:08.694Z,88.69
2018-01-21T13:15:36.286Z,86.97
2018-01-21T13:18:03.813Z,86.69
2018-01-21T13:20:31.406Z,85.15
2018-01-21T13:22:58.949Z,85.58
2018-01-21T13:25:26.460Z,87.58
2018-01-21T13:27:54.274Z,88.23
2018-01-21T13:30:21.791Z,88.52
2018-01-21T13:32:49.595Z,88.63
2018-01-21T13:35:17.167Z,88.27
2018-01-21T13:37:44.936Z,88.64
2018-01-21T13:40:12.713Z,87.99
2018-01-21T13:42:40.290Z,88.03
2018-01-21T13:45:07.852Z,87.53
2018-01-21T13:47:35.748Z,86.45
2018-01-21T13:50:03.290Z,86.75
2018-01-21T13:52:30.845Z,86.11
2018-01-21T13:54:58.427Z,87.05
2018-01-21T13:57:25.935Z,86.86
2018-01-21T13:59:53.599Z,86.86
2018-01-21T14:02:21.521Z,86.94
2018-01-21T14:04:49.035Z,86.63
2018-01-21T14:07:16.534Z,88.36
2018-01-21T14:09:44.206Z,88.02
2018-01-21T14:12:11.793Z,89.27
2018-01-21T14:14:39.649Z,89.25
2018-01-21T14:17:07.343Z,90.29
2018-01-21T14:19:34.917Z,89.69
2018-01-21T14:22:02.489Z,88.88
2018-01-21T14:24:30.098Z,88.63
2018-01-21T14:26:57.835Z,89.47
2018-01-21T14:29:25.568Z,89.04
2018-01-21T14:31:53.134Z,88.85
2018-01-21T14:34:20.633Z,89.46
2018-01-21T14:36:48.143Z,89.23
2018-01-21T14:39:16.032Z,89.21
2018-01-21T14:41:43.543Z,89.39
2018-01-21T14:44:11.498Z,89.46
2018-01-21T14:46:39.215Z,89.61
2018-01-21T14:49:06.745Z,90.19
2018-01-21T14:51:34.308Z,90.57
2018-01-21T14:54:01.874Z,90.96
2018-01-21T14:56:29.425Z,91.11
2018-01-21T14:58:57.096Z,91.41
2018-01-21T15:01:24.684Z,91.96
2018-01-21T15:03:52.248Z,92.40
2018-01-21T15:06:19.802Z,92.81
2018-01-21T15:08:47.397Z,93.24
2018-01-21T15:11:14.957Z,93.51
2018-01-21T15:13:42.487Z,93.94
2018-01-21T15:16:10.057Z,94.21
2018-01-21T15:18:37.650Z,94.74
2018-01-21T15:21:05.221Z,94.94
2018-01-21T15:23:32.774Z,95.36
2018-01-21T15:26:00.386Z,95.78
2018-01-21T15:28:27.891Z,95.91
2018-01-21T15:30:55.606Z,96.27
2018-01-21T15:33:23.152Z,96.41
2018-01-21T15:35:50.692Z,96.73
2018-01-21T15:38:18.273Z,96.94
2018-01-21T15:40:45.829Z,97.14
2018-01-21T15:43:13.416Z,97.53
2018-01-21T15:45:41.397Z,97.51
2018-01-21T15:48:08.933Z,97.81
2018-01-21T15:50:36.486Z,98.07
2018-01-21T15:53:04.047Z,98.21
2018-01-21T15:55:31.620Z,98.00
2018-01-21T15:57:59.192Z,98.04
2018-01-21T16:00:26.690Z,98.29
2018-01-21T16:02:54.256Z,98.53
2018-01-21T16:05:21.762Z,98.85
2018-01-21T16:07:49.376Z,99.27
2018-01-21T16:10:16.936Z,99.49
2018-01-21T16:12:44.625Z,99.58
2018-01-21T16:15:12.273Z,99.70
2018-01-21T16:17:40.112Z,99.85
2018-01-21T16:20:07.722Z,100.00
2018-01-21T16:22:35.498Z,100.00
2018-01-21T16:25:03.025Z,100.00
2018-01-21T16:27:30.629Z,100.00
2018-01-21T16:29:58.163Z,99.77
2018-01-21T16:32:25.695Z,99.76
2018-01-21T16:34:53.278Z,99.58
2018-01-21T16:37:32.630Z,99.57
2018-01-21T16:40:00.175Z,99.45
2018-01-21T16:42:27.865Z,99.28
2018-01-21T16:44:55.371Z,99.19
2018-01-21T16:47:22.892Z,99.12
2018-01-21T16:49:50.461Z,99.14
2018-01-21T16:52:17.971Z,99.31
2018-01-21T16:54:45.543Z,99.34
2018-01-21T16:57:13.105Z,99.49
2018-01-21T16:59:40.681Z,99.67
2018-01-21T17:02:08.250Z,100.00
2018-01-21T17:04:35.830Z,100.00
2018-01-21T17:07:03.407Z,100.00
2018-01-21T17:09:30.989Z,100.00
2018-01-21T17:11:58.638Z,100.00
2018-01-21T17:14:26.258Z,100.00
2018-01-21T17:16:53.775Z,100.00
2018-01-21T17:19:21.288Z,99.83
2018-01-21T17:21:48.894Z,99.65
2018-01-21T17:24:16.567Z,99.55
2018-01-21T17:26:44.149Z,99.53
2018-01-21T17:29:11.900Z,99.57
2018-01-21T17:31:39.514Z,99.78
2018-01-21T17:34:10.508Z,99.84
2018-01-21T17:36:38.023Z,99.70
2018-01-21T17:39:05.645Z,99.58
2018-01-21T17:41:33.556Z,99.54
2018-01-21T17:44:02.134Z,99.68
2018-01-21T17:46:31.019Z,99.62
2018-01-21T17:48:58.646Z,99.79
2018-01-21T17:51:26.176Z,99.64
2018-01-21T17:53:53.731Z,99.59
2018-01-21T17:56:21.340Z,99.58
2018-01-21T17:58:48.895Z,99.56
2018-01-21T18:01:16.502Z,99.65
2018-01-21T18:03:44.071Z,99.66
2018-01-21T18:06:11.700Z,99.56
2018-01-21T18:08:39.216Z,99.77
2018-01-21T18:11:06.803Z,99.80
2018-01-21T18:13:34.353Z,99.80
2018-01-21T18:16:01.871Z,99.59
2018-01-21T18:18:29.441Z,99.46
2018-01-21T18:20:57.054Z,99.53
2018-01-21T18:23:25.183Z,99.74
2018-01-21T18:25:53.374Z,99.76
2018-01-21T18:28:20.975Z,99.79
2018-01-21T18:30:48.665Z,99.73
2018-01-21T18:33:16.258Z,99.49
2018-01-21T18:35:44.007Z,99.21
2018-01-21T18:38:11.643Z,99.29
2018-01-21T18:40:39.167Z,99.47
2018-01-21T18:43:06.781Z,99.63
2018-01-21T18:45:34.406Z,99.91
2018-01-21T18:48:01.985Z,99.27
2018-01-21T18:50:29.533Z,99.58
2018-01-21T18:52:57.448Z,98.92
2018-01-21T18:55:25.096Z,98.14
2018-01-21T18:57:52.997Z,98.75
2018-01-21T19:00:20.609Z,98.48
2018-01-21T19:02:48.357Z,98.71
2018-01-21T19:05:15.935Z,98.36
2018-01-21T19:07:43.589Z,98.31
2018-01-21T19:10:11.145Z,98.19
2018-01-21T19:12:38.703Z,97.34
2018-01-21T19:15:06.223Z,97.58
2018-01-21T19:17:34.098Z,97.74
2018-01-21T19:20:01.607Z,98.13
2018-01-21T19:22:29.200Z,97.70
2018-01-21T19:24:56.789Z,97.52
2018-01-21T19:27:24.481Z,97.63
2018-01-21T19:29:52.157Z,97.66
2018-01-21T19:32:19.748Z,97.58
2018-01-21T19:34:47.616Z,97.14
2018-01-21T19:37:15.258Z,96.98
2018-01-21T19:39:48.361Z,97.12
2018-01-21T19:42:17.835Z,96.96
2018-01-21T19:44:45.401Z,96.74
2018-01-21T19:47:13.036Z,96.76
2018-01-21T19:49:42.772Z,96.63
2018-01-21T19:52:10.299Z,96.84
2018-01-21T19:54:37.802Z,96.57
2018-01-21T19:57:05.599Z,96.58
2018-01-21T19:59:33.222Z,96.60
2018-01-21T20:02:00.969Z,96.66
2018-01-21T20:04:29.050Z,96.97
2018-01-21T20:06:56.683Z,96.74
2018-01-21T20:09:24.682Z,96.93
2018-01-21T20:11:52.250Z,96.63
2018-01-21T20:14:20.256Z,96.98
2018-01-21T20:16:48.138Z,96.63
2018-01-21T20:19:15.815Z,96.77
2018-01-21T20:21:43.848Z,96.62
2018-01-21T20:24:11.818Z,96.71
2018-01-21T20:26:39.444Z,96.60
2018-01-21T20:29:07.037Z,96.73
2018-01-21T20:31:34.603Z,96.96
2018-01-21T20:34:02.237Z,96.78
2018-01-21T20:36:29.869Z,96.88
2018-01-21T20:38:57.417Z,96.67
2018-01-21T20:41:25.161Z,96.61
2018-01-21T20:43:52.746Z,96.83
2018-01-21T20:46:20.301Z,96.64
2018-01-21T20:48:47.893Z,96.62
2018-01-21T20:51:21.199Z,96.65
2018-01-21T20:53:55.198Z,96.63
2018-01-21T20:56:22.747Z,96.78
2018-01-21T20:58:50.309Z,97.06
2018-01-21T21:01:17.870Z,97.04
2018-01-21T21:03:45.399Z,96.90
2018-01-21T21:06:12.929Z,97.02
2018-01-21T21:08:40.552Z,97.25
2018-01-21T21:11:08.512Z,97.25
2018-01-21T21:13:36.114Z,96.74
2018-01-21T21:16:03.683Z,96.92
2018-01-21T21:18:31.370Z,97.17
2018-01-21T21:20:58.920Z,97.05
2018-01-21T21:23:26.810Z,97.14
2018-01-21T21:25:54.364Z,97.35
2018-01-21T21:28:21.925Z,97.16
2018-01-21T21:30:49.794Z,97.27
2018-01-21T21:33:17.346Z,97.40
2018-01-21T21:35:44.891Z,97.55
2018-01-21T21:38:12.476Z,97.49
2018-01-21T21:40:40.069Z,97.67
2018-01-21T21:43:07.590Z,97.68
2018-01-21T21:45:35.162Z,97.73
2018-01-21T21:48:02.706Z,97.60
2018-01-21T21:50:30.319Z,97.54
2018-01-21T21:52:57.875Z,97.46
2018-01-21T21:55:25.494Z,97.61
2018-01-21T21:57:53.016Z,97.72
2018-01-21T22:00:20.530Z,97.57
2018-01-21T22:02:48.320Z,97.42
2018-01-21T22:05:15.868Z,97.48
2018-01-21T22:07:43.382Z,97.39
2018-01-21T22:10:11.277Z,97.29
2018-01-21T22:12:38.804Z,98.44
2018-01-21T22:15:06.357Z,97.18
2018-01-21T22:17:33.907Z,97.27
2018-01-21T22:20:01.425Z,96.82
2018-01-21T22:22:29.036Z,96.82
2018-01-21T22:24:56.627Z,96.87
2018-01-21T22:27:24.214Z,96.94
2018-01-21T22:29:52.139Z,96.95
2018-01-21T22:32:19.728Z,96.89
2018-01-21T22:34:47.290Z,96.61
2018-01-21T22:37:14.889Z,96.50
2018-01-21T22:39:42.412Z,96.42
2018-01-21T22:42:10.023Z,96.24
2018-01-21T22:44:37.577Z,96.29
2018-01-21T22:47:05.129Z,96.66
2018-01-21T22:49:32.701Z,97.64
2018-01-21T22:52:00.245Z,96.64
2018-01-21T22:54:27.828Z,96.75
2018-01-21T22:56:55.348Z,96.65
2018-01-21T22:59:22.904Z,96.86
2018-01-21T23:01:50.463Z,96.90
2018-01-21T23:04:18.044Z,96.82
2018-01-21T23:06:45.728Z,96.83
2018-01-21T23:09:13.285Z,97.36
2018-01-21T23:11:40.843Z,96.72
2018-01-21T23:14:08.377Z,96.77
2018-01-21T23:16:36.225Z,96.76
2018-01-21T23:19:03.814Z,96.43
2018-01-21T23:21:31.581Z,96.24
2018-01-21T23:23:59.150Z,96.16
2018-01-21T23:26:26.667Z,96.00
2018-01-21T23:28:54.233Z,95.55
2018-01-21T23:31:21.832Z,95.39
2018-01-21T23:33:49.413Z,94.83
2018-01-21T23:36:17.115Z,94.76
2018-01-21T23:38:44.659Z,94.16
2018-01-21T23:41:12.222Z,93.87
2018-01-21T23:43:39.762Z,93.67
2018-01-21T23:46:07.312Z,93.93
2018-01-21T23:48:34.855Z,94.10
2018-01-21T23:51:02.408Z,94.02
2018-01-21T23:53:30.018Z,93.59
2018-01-21T23:55:57.537Z,93.47
2018-01-21T23:58:25.048Z,93.04
